Check out our new PWSWeather beta!
PWSweather.com
Personal Weather Stations
Station Observations

SkegnessGB

Lat: 53.147585, Lon: 0.345774

Elevation: 18

Station Type: Fine Offset WH3080

http://www.skegnessweather.info/

High Low Average
Temperature 43.3°F6.3°C 38.8°F3.8°C 41.3°F5.2°C
Dew Point 38.3°F3.5°C 35.3°F1.8°C 37.0°F2.8°C
Winds 16.8 mph 27.0 kmh Calm Calm 8.0 mph S12.9 kmh S
Wind Gusts 19.2 mph30.9 kmh -- 8.0 mph12.9 kmh
Humidity 89% 81% 85%
Pressure 29.50 in999.0 mb 29.38 in994.9 mb -
Precipitation 0.00 in0.0 mm - -
Hour Temp Dew Point Humidity Winds Wind Gusts Pressure Precip Precip Rate Daily Precip Total
12:00 AM 43.3°F6.3°C 38.2°F3.4°C 82% 16.8 mph S27.0 kmh S 16.7 mph26.9 kmh 29.38 in994.9 mb 0.00 in0.0 mm 0.00 in0.0 mm 0.00 in0.0 mm
12:10 AM 43.2°F6.2°C 38.0°F3.3°C 82% 15.9 mph S25.6 kmh S 16.0 mph25.7 kmh 29.38 in994.9 mb 0.00 in0.0 mm 0.00 in0.0 mm 0.00 in0.0 mm
12:20 AM 42.8°F6.0°C 37.4°F3.0°C 81% 12.8 mph S20.6 kmh S 14.3 mph23.0 kmh 29.38 in994.9 mb 0.00 in0.0 mm 0.00 in0.0 mm 0.00 in0.0 mm
12:30 AM 42.6°F5.9°C 37.2°F2.9°C 81% 13.3 mph S21.4 kmh S 16.7 mph26.9 kmh 29.38 in994.9 mb 0.00 in0.0 mm 0.00 in0.0 mm 0.00 in0.0 mm
12:40 AM 42.3°F5.7°C 36.8°F2.7°C 81% 12.6 mph SSE20.3 kmh SSE 14.3 mph23.0 kmh 29.39 in995.3 mb 0.00 in0.0 mm 0.00 in0.0 mm 0.00 in0.0 mm
12:50 AM 42.1°F5.6°C 36.7°F2.6°C 81% 13.6 mph SSE21.9 kmh SSE 18.5 mph29.8 kmh 29.39 in995.3 mb 0.00 in0.0 mm 0.00 in0.0 mm 0.00 in0.0 mm
01:00 AM 41.9°F5.5°C 36.5°F2.5°C 81% 13.1 mph SSW21.1 kmh SSW 13.3 mph21.4 kmh 29.39 in995.3 mb 0.00 in0.0 mm 0.00 in0.0 mm 0.00 in0.0 mm
01:10 AM 41.7°F5.4°C 36.3°F2.4°C 81% 12.7 mph SSE20.4 kmh SSE 10.1 mph16.3 kmh 29.39 in995.3 mb 0.00 in0.0 mm 0.00 in0.0 mm 0.00 in0.0 mm
01:20 AM 41.5°F5.3°C 36.5°F2.5°C 82% 12.6 mph S20.3 kmh S 14.3 mph23.0 kmh 29.39 in995.3 mb 0.00 in0.0 mm 0.00 in0.0 mm 0.00 in0.0 mm
01:30 AM 41.4°F5.2°C 36.3°F2.4°C 82% 13.1 mph SW21.1 kmh SW 11.8 mph19.0 kmh 29.39 in995.3 mb 0.00 in0.0 mm 0.00 in0.0 mm 0.00 in0.0 mm
01:40 AM 41.4°F5.2°C 36.3°F2.4°C 82% 11.9 mph S19.2 kmh S 10.1 mph16.3 kmh 29.39 in995.3 mb 0.00 in0.0 mm 0.00 in0.0 mm 0.00 in0.0 mm
01:50 AM 41.2°F5.1°C 36.1°F2.3°C 82% 14.4 mph S23.2 kmh S 14.3 mph23.0 kmh 29.39 in995.3 mb 0.00 in0.0 mm 0.00 in0.0 mm 0.00 in0.0 mm
02:00 AM 41.0°F5.0°C 35.9°F2.2°C 82% 12.0 mph SE19.3 kmh SE 14.3 mph23.0 kmh 29.39 in995.3 mb 0.00 in0.0 mm 0.00 in0.0 mm 0.00 in0.0 mm
02:10 AM 40.8°F4.9°C 35.7°F2.1°C 82% 11.8 mph S19.0 kmh S 11.8 mph19.0 kmh 29.40 in995.6 mb 0.00 in0.0 mm 0.00 in0.0 mm 0.00 in0.0 mm
02:20 AM 40.6°F4.8°C 35.6°F2.0°C 82% 11.8 mph SSE19.0 kmh SSE 10.8 mph17.4 kmh 29.39 in995.3 mb 0.00 in0.0 mm 0.00 in0.0 mm 0.00 in0.0 mm
02:30 AM 40.5°F4.7°C 35.4°F1.9°C 82% 12.5 mph S20.1 kmh S 13.3 mph21.4 kmh 29.39 in995.3 mb 0.00 in0.0 mm 0.00 in0.0 mm 0.00 in0.0 mm
02:40 AM 40.5°F4.7°C 35.7°F2.1°C 83% 11.8 mph SSE19.0 kmh SSE 10.8 mph17.4 kmh 29.39 in995.3 mb 0.00 in0.0 mm 0.00 in0.0 mm 0.00 in0.0 mm
02:50 AM 40.5°F4.7°C 35.7°F2.1°C 83% 12.2 mph S19.6 kmh S 14.3 mph23.0 kmh 29.39 in995.3 mb 0.00 in0.0 mm 0.00 in0.0 mm 0.00 in0.0 mm
03:00 AM 40.5°F4.7°C 35.7°F2.1°C 83% 14.8 mph S23.8 kmh S 16.7 mph26.9 kmh 29.38 in994.9 mb 0.00 in0.0 mm 0.00 in0.0 mm 0.00 in0.0 mm
03:10 AM 40.5°F4.7°C 35.7°F2.1°C 83% 10.4 mph WSW16.7 kmh WSW 9.1 mph14.6 kmh 29.38 in994.9 mb 0.00 in0.0 mm 0.00 in0.0 mm 0.00 in0.0 mm
03:20 AM 40.5°F4.7°C 35.7°F2.1°C 83% 16.2 mph S26.1 kmh S 18.5 mph29.8 kmh 29.39 in995.3 mb 0.00 in0.0 mm 0.00 in0.0 mm 0.00 in0.0 mm
03:30 AM 40.5°F4.7°C 35.7°F2.1°C 83% 12.7 mph S20.4 kmh S 18.5 mph29.8 kmh 29.39 in995.3 mb 0.00 in0.0 mm 0.00 in0.0 mm 0.00 in0.0 mm
03:40 AM 40.5°F4.7°C 35.7°F2.1°C 83% 13.1 mph S21.1 kmh S 14.3 mph23.0 kmh 29.38 in994.9 mb 0.00 in0.0 mm 0.00 in0.0 mm 0.00 in0.0 mm
03:50 AM 40.3°F4.6°C 35.5°F1.9°C 83% 12.7 mph S20.4 kmh S 13.3 mph21.4 kmh 29.39 in995.3 mb 0.00 in0.0 mm 0.00 in0.0 mm 0.00 in0.0 mm
04:00 AM 40.3°F4.6°C 35.5°F1.9°C 83% 13.3 mph S21.4 kmh S 13.3 mph21.4 kmh 29.39 in995.3 mb 0.00 in0.0 mm 0.00 in0.0 mm 0.00 in0.0 mm
04:10 AM 40.3°F4.6°C 35.8°F2.1°C 84% 12.9 mph S20.8 kmh S 14.3 mph23.0 kmh 29.39 in995.3 mb 0.00 in0.0 mm 0.00 in0.0 mm 0.00 in0.0 mm
04:20 AM 40.3°F4.6°C 35.8°F2.1°C 84% 9.9 mph S15.9 kmh S 10.1 mph16.3 kmh 29.39 in995.3 mb 0.00 in0.0 mm 0.00 in0.0 mm 0.00 in0.0 mm
04:30 AM 40.3°F4.6°C 35.8°F2.1°C 84% 11.5 mph S18.5 kmh S 13.3 mph21.4 kmh 29.39 in995.3 mb 0.00 in0.0 mm 0.00 in0.0 mm 0.00 in0.0 mm
04:40 AM 40.3°F4.6°C 35.8°F2.1°C 84% 11.7 mph S18.8 kmh S 10.8 mph17.4 kmh 29.39 in995.3 mb 0.00 in0.0 mm 0.00 in0.0 mm 0.00 in0.0 mm
04:50 AM 40.1°F4.5°C 35.7°F2.1°C 84% 11.3 mph S18.2 kmh S 11.8 mph19.0 kmh 29.39 in995.3 mb 0.00 in0.0 mm 0.00 in0.0 mm 0.00 in0.0 mm
05:00 AM 40.1°F4.5°C 35.7°F2.1°C 84% 10.6 mph SSE17.1 kmh SSE 9.1 mph14.6 kmh 29.40 in995.6 mb 0.00 in0.0 mm 0.00 in0.0 mm 0.00 in0.0 mm
05:10 AM 39.9°F4.4°C 35.5°F1.9°C 84% 11.1 mph S17.9 kmh S 10.1 mph16.3 kmh 29.40 in995.6 mb 0.00 in0.0 mm 0.00 in0.0 mm 0.00 in0.0 mm
05:20 AM 39.9°F4.4°C 35.5°F1.9°C 84% 9.1 mph SW14.6 kmh SW 9.1 mph14.6 kmh 29.40 in995.6 mb 0.00 in0.0 mm 0.00 in0.0 mm 0.00 in0.0 mm
05:30 AM 39.7°F4.3°C 35.3°F1.8°C 84% 9.6 mph SSW15.4 kmh SSW 10.8 mph17.4 kmh 29.40 in995.6 mb 0.00 in0.0 mm 0.00 in0.0 mm 0.00 in0.0 mm
05:40 AM 39.7°F4.3°C 35.3°F1.8°C 84% 10.0 mph S16.1 kmh S 10.8 mph17.4 kmh 29.40 in995.6 mb 0.00 in0.0 mm 0.00 in0.0 mm 0.00 in0.0 mm
05:50 AM 39.7°F4.3°C 35.3°F1.8°C 84% 10.8 mph S17.4 kmh S 11.8 mph19.0 kmh 29.40 in995.6 mb 0.00 in0.0 mm 0.00 in0.0 mm 0.00 in0.0 mm
06:00 AM 39.7°F4.3°C 35.6°F2.0°C 85% 10.6 mph S17.1 kmh S 10.8 mph17.4 kmh 29.40 in995.6 mb 0.00 in0.0 mm 0.00 in0.0 mm 0.00 in0.0 mm
06:10 AM 39.7°F4.3°C 35.6°F2.0°C 85% 9.8 mph S15.8 kmh S 10.1 mph16.3 kmh 29.40 in995.6 mb 0.00 in0.0 mm 0.00 in0.0 mm 0.00 in0.0 mm
06:20 AM 39.7°F4.3°C 35.6°F2.0°C 85% 9.3 mph S15.0 kmh S 9.1 mph14.6 kmh 29.41 in995.9 mb 0.00 in0.0 mm 0.00 in0.0 mm 0.00 in0.0 mm
06:30 AM 39.9°F4.4°C 35.8°F2.1°C 85% 11.1 mph S17.9 kmh S 10.1 mph16.3 kmh 29.41 in995.9 mb 0.00 in0.0 mm 0.00 in0.0 mm 0.00 in0.0 mm
06:40 AM 40.1°F4.5°C 36.2°F2.3°C 86% 11.0 mph SSE17.7 kmh SSE 14.3 mph23.0 kmh 29.41 in995.9 mb 0.00 in0.0 mm 0.00 in0.0 mm 0.00 in0.0 mm
06:50 AM 40.3°F4.6°C 36.4°F2.4°C 86% 11.8 mph S19.0 kmh S 12.5 mph20.1 kmh 29.41 in995.9 mb 0.00 in0.0 mm 0.00 in0.0 mm 0.00 in0.0 mm
07:00 AM 40.5°F4.7°C 36.6°F2.6°C 86% 11.3 mph S18.2 kmh S 11.8 mph19.0 kmh 29.41 in995.9 mb 0.00 in0.0 mm 0.00 in0.0 mm 0.00 in0.0 mm
07:10 AM 40.6°F4.8°C 36.8°F2.7°C 86% 12.2 mph SSW19.6 kmh SSW 12.5 mph20.1 kmh 29.41 in995.9 mb 0.00 in0.0 mm 0.00 in0.0 mm 0.00 in0.0 mm
07:20 AM 40.6°F4.8°C 36.8°F2.7°C 86% 14.1 mph S22.7 kmh S 12.5 mph20.1 kmh 29.41 in995.9 mb 0.00 in0.0 mm 0.00 in0.0 mm 0.00 in0.0 mm
07:30 AM 40.8°F4.9°C 37.0°F2.8°C 86% 12.8 mph S20.6 kmh S 15.0 mph24.1 kmh 29.42 in996.3 mb 0.00 in0.0 mm 0.00 in0.0 mm 0.00 in0.0 mm
07:40 AM 40.8°F4.9°C 37.0°F2.8°C 86% 12.4 mph S20.0 kmh S 14.3 mph23.0 kmh 29.43 in996.6 mb 0.00 in0.0 mm 0.00 in0.0 mm 0.00 in0.0 mm
07:50 AM 41.0°F5.0°C 37.1°F2.8°C 86% 11.0 mph SE17.7 kmh SE 11.8 mph19.0 kmh 29.43 in996.6 mb 0.00 in0.0 mm 0.00 in0.0 mm 0.00 in0.0 mm
08:00 AM 41.0°F5.0°C 36.8°F2.7°C 85% 10.9 mph S17.5 kmh S 10.8 mph17.4 kmh 29.44 in997.0 mb 0.00 in0.0 mm 0.00 in0.0 mm 0.00 in0.0 mm
08:10 AM 41.0°F5.0°C 36.8°F2.7°C 85% 10.4 mph SSE16.7 kmh SSE 10.1 mph16.3 kmh 29.44 in997.0 mb 0.00 in0.0 mm 0.00 in0.0 mm 0.00 in0.0 mm
08:20 AM 40.8°F4.9°C 36.7°F2.6°C 85% 9.4 mph SSW15.1 kmh SSW 10.8 mph17.4 kmh 29.45 in997.3 mb 0.00 in0.0 mm 0.00 in0.0 mm 0.00 in0.0 mm
08:30 AM 41.0°F5.0°C 36.5°F2.5°C 84% 12.9 mph S20.8 kmh S 14.3 mph23.0 kmh 29.45 in997.3 mb 0.00 in0.0 mm 0.00 in0.0 mm 0.00 in0.0 mm
08:40 AM 41.2°F5.1°C 36.7°F2.6°C 84% 12.1 mph S19.5 kmh S 19.2 mph30.9 kmh 29.45 in997.3 mb 0.00 in0.0 mm 0.00 in0.0 mm 0.00 in0.0 mm
08:50 AM 41.2°F5.1°C 36.4°F2.4°C 83% 11.2 mph S18.0 kmh S 13.3 mph21.4 kmh 29.45 in997.3 mb 0.00 in0.0 mm 0.00 in0.0 mm 0.00 in0.0 mm
09:00 AM 41.2°F5.1°C 36.4°F2.4°C 83% 13.2 mph SSW21.2 kmh SSW 14.3 mph23.0 kmh 29.45 in997.3 mb 0.00 in0.0 mm 0.00 in0.0 mm 0.00 in0.0 mm
09:10 AM 41.4°F5.2°C 36.6°F2.6°C 83% 15.1 mph SE24.3 kmh SE 13.3 mph21.4 kmh 29.46 in997.6 mb 0.00 in0.0 mm 0.00 in0.0 mm 0.00 in0.0 mm
09:20 AM 41.4°F5.2°C 36.6°F2.6°C 83% 12.0 mph S19.3 kmh S 11.8 mph19.0 kmh 29.46 in997.6 mb 0.00 in0.0 mm 0.00 in0.0 mm 0.00 in0.0 mm
09:30 AM 41.4°F5.2°C 36.6°F2.6°C 83% 9.6 mph SSW15.4 kmh SSW 10.1 mph16.3 kmh 29.46 in997.6 mb 0.00 in0.0 mm 0.00 in0.0 mm 0.00 in0.0 mm
09:40 AM 41.5°F5.3°C 36.8°F2.7°C 83% 10.7 mph S17.2 kmh S 10.8 mph17.4 kmh 29.46 in997.6 mb 0.00 in0.0 mm 0.00 in0.0 mm 0.00 in0.0 mm
09:50 AM 41.7°F5.4°C 36.9°F2.7°C 83% 11.9 mph S19.2 kmh S 12.5 mph20.1 kmh 29.46 in997.6 mb 0.00 in0.0 mm 0.00 in0.0 mm 0.00 in0.0 mm
10:00 AM 41.9°F5.5°C 37.1°F2.8°C 83% 10.7 mph S17.2 kmh S 12.5 mph20.1 kmh 29.47 in998.0 mb 0.00 in0.0 mm 0.00 in0.0 mm 0.00 in0.0 mm
10:10 AM 41.9°F5.5°C 36.8°F2.7°C 82% 11.0 mph WSW17.7 kmh WSW 14.3 mph23.0 kmh 29.47 in998.0 mb 0.00 in0.0 mm 0.00 in0.0 mm 0.00 in0.0 mm
10:20 AM 41.9°F5.5°C 36.8°F2.7°C 82% 8.9 mph SSW14.3 kmh SSW 10.8 mph17.4 kmh 29.48 in998.3 mb 0.00 in0.0 mm 0.00 in0.0 mm 0.00 in0.0 mm
10:30 AM 42.1°F5.6°C 37.3°F2.9°C 83% 7.5 mph SSW12.1 kmh SSW 10.1 mph16.3 kmh 29.48 in998.3 mb 0.00 in0.0 mm 0.00 in0.0 mm 0.00 in0.0 mm
10:40 AM 42.3°F5.7°C 37.5°F3.1°C 83% 8.9 mph WSW14.3 kmh WSW 9.1 mph14.6 kmh 29.48 in998.3 mb 0.00 in0.0 mm 0.00 in0.0 mm 0.00 in0.0 mm
10:50 AM 42.3°F5.7°C 37.5°F3.1°C 83% 9.7 mph SW15.6 kmh SW 10.1 mph16.3 kmh 29.48 in998.3 mb 0.00 in0.0 mm 0.00 in0.0 mm 0.00 in0.0 mm
11:00 AM 42.4°F5.8°C 37.6°F3.1°C 83% 10.0 mph S16.1 kmh S 12.5 mph20.1 kmh 29.48 in998.3 mb 0.00 in0.0 mm 0.00 in0.0 mm 0.00 in0.0 mm
11:10 AM 42.4°F5.8°C 37.6°F3.1°C 83% 6.6 mph W10.6 kmh W 8.4 mph13.5 kmh 29.48 in998.3 mb 0.00 in0.0 mm 0.00 in0.0 mm 0.00 in0.0 mm
11:20 AM 42.6°F5.9°C 37.8°F3.2°C 83% 7.4 mph WNW11.9 kmh WNW 8.4 mph13.5 kmh 29.48 in998.3 mb 0.00 in0.0 mm 0.00 in0.0 mm 0.00 in0.0 mm
11:30 AM 42.8°F6.0°C 38.0°F3.3°C 83% 7.7 mph SSW12.4 kmh SSW 8.4 mph13.5 kmh 29.48 in998.3 mb 0.00 in0.0 mm 0.00 in0.0 mm 0.00 in0.0 mm
11:40 AM 43.0°F6.1°C 37.9°F3.3°C 82% 6.4 mph WSW10.3 kmh WSW 8.4 mph13.5 kmh 29.48 in998.3 mb 0.00 in0.0 mm 0.00 in0.0 mm 0.00 in0.0 mm
11:50 AM 43.0°F6.1°C 37.9°F3.3°C 82% 7.7 mph SW12.4 kmh SW 7.6 mph12.2 kmh 29.49 in998.6 mb 0.00 in0.0 mm 0.00 in0.0 mm 0.00 in0.0 mm
12:00 PM 43.0°F6.1°C 37.9°F3.3°C 82% 7.1 mph WSW11.4 kmh WSW 8.4 mph13.5 kmh 29.48 in998.3 mb 0.00 in0.0 mm 0.00 in0.0 mm 0.00 in0.0 mm
12:10 PM 43.2°F6.2°C 38.0°F3.3°C 82% 7.2 mph S11.6 kmh S 8.4 mph13.5 kmh 29.48 in998.3 mb 0.00 in0.0 mm 0.00 in0.0 mm 0.00 in0.0 mm
12:20 PM 43.2°F6.2°C 38.0°F3.3°C 82% 9.2 mph SW14.8 kmh SW 10.8 mph17.4 kmh 29.48 in998.3 mb 0.00 in0.0 mm 0.00 in0.0 mm 0.00 in0.0 mm
12:30 PM 43.2°F6.2°C 38.0°F3.3°C 82% 7.9 mph SW12.7 kmh SW 9.1 mph14.6 kmh 29.48 in998.3 mb 0.00 in0.0 mm 0.00 in0.0 mm 0.00 in0.0 mm
12:40 PM 43.2°F6.2°C 38.0°F3.3°C 82% 7.6 mph SW12.2 kmh SW 10.1 mph16.3 kmh 29.48 in998.3 mb 0.00 in0.0 mm 0.00 in0.0 mm 0.00 in0.0 mm
12:50 PM 43.2°F6.2°C 38.0°F3.3°C 82% 6.9 mph S11.1 kmh S 7.6 mph12.2 kmh 29.47 in998.0 mb 0.00 in0.0 mm 0.00 in0.0 mm 0.00 in0.0 mm
01:00 PM 43.2°F6.2°C 38.0°F3.3°C 82% 7.2 mph S11.6 kmh S 8.4 mph13.5 kmh 29.47 in998.0 mb 0.00 in0.0 mm 0.00 in0.0 mm 0.00 in0.0 mm
01:10 PM 43.2°F6.2°C 38.0°F3.3°C 82% 6.0 mph SE9.7 kmh SE 4.9 mph7.9 kmh 29.47 in998.0 mb 0.00 in0.0 mm 0.00 in0.0 mm 0.00 in0.0 mm
01:20 PM 43.0°F6.1°C 37.9°F3.3°C 82% 6.9 mph SW11.1 kmh SW 6.6 mph10.6 kmh 29.48 in998.3 mb 0.00 in0.0 mm 0.00 in0.0 mm 0.00 in0.0 mm
01:30 PM 43.0°F6.1°C 37.9°F3.3°C 82% 6.8 mph SSW10.9 kmh SSW 7.6 mph12.2 kmh 29.47 in998.0 mb 0.00 in0.0 mm 0.00 in0.0 mm 0.00 in0.0 mm
01:40 PM 43.0°F6.1°C 37.9°F3.3°C 82% 7.2 mph SSE11.6 kmh SSE 7.6 mph12.2 kmh 29.48 in998.3 mb 0.00 in0.0 mm 0.00 in0.0 mm 0.00 in0.0 mm
01:50 PM 43.0°F6.1°C 37.9°F3.3°C 82% 6.9 mph SSW11.1 kmh SSW 7.6 mph12.2 kmh 29.48 in998.3 mb 0.00 in0.0 mm 0.00 in0.0 mm 0.00 in0.0 mm
02:00 PM 43.0°F6.1°C 37.9°F3.3°C 82% 6.3 mph SSW10.1 kmh SSW 8.4 mph13.5 kmh 29.49 in998.6 mb 0.00 in0.0 mm 0.00 in0.0 mm 0.00 in0.0 mm
02:10 PM 42.8°F6.0°C 37.7°F3.2°C 82% 5.1 mph S8.2 kmh S 5.9 mph9.5 kmh 29.48 in998.3 mb 0.00 in0.0 mm 0.00 in0.0 mm 0.00 in0.0 mm
02:20 PM 42.8°F6.0°C 37.7°F3.2°C 82% 4.6 mph S7.4 kmh S 4.9 mph7.9 kmh 29.48 in998.3 mb 0.00 in0.0 mm 0.00 in0.0 mm 0.00 in0.0 mm
02:30 PM 42.8°F6.0°C 38.0°F3.3°C 83% 5.7 mph S9.2 kmh S 5.9 mph9.5 kmh 29.48 in998.3 mb 0.00 in0.0 mm 0.00 in0.0 mm 0.00 in0.0 mm
02:40 PM 42.6°F5.9°C 37.8°F3.2°C 83% 5.9 mph S9.5 kmh S 5.9 mph9.5 kmh 29.49 in998.6 mb 0.00 in0.0 mm 0.00 in0.0 mm 0.00 in0.0 mm
02:50 PM 42.4°F5.8°C 37.6°F3.1°C 83% 5.6 mph S9.0 kmh S 6.6 mph10.6 kmh 29.48 in998.3 mb 0.00 in0.0 mm 0.00 in0.0 mm 0.00 in0.0 mm
03:00 PM 42.4°F5.8°C 37.6°F3.1°C 83% 7.5 mph SW12.1 kmh SW 6.6 mph10.6 kmh 29.48 in998.3 mb 0.00 in0.0 mm 0.00 in0.0 mm 0.00 in0.0 mm
03:10 PM 42.1°F5.6°C 37.3°F2.9°C 83% 5.5 mph SW8.9 kmh SW 4.2 mph6.8 kmh 29.48 in998.3 mb 0.00 in0.0 mm 0.00 in0.0 mm 0.00 in0.0 mm
03:20 PM 41.9°F5.5°C 37.1°F2.8°C 83% 4.9 mph S7.9 kmh S 6.6 mph10.6 kmh 29.48 in998.3 mb 0.00 in0.0 mm 0.00 in0.0 mm 0.00 in0.0 mm
03:30 PM 41.5°F5.3°C 36.8°F2.7°C 83% 3.9 mph SSE6.3 kmh SSE 4.9 mph7.9 kmh 29.48 in998.3 mb 0.00 in0.0 mm 0.00 in0.0 mm 0.00 in0.0 mm
03:40 PM 41.4°F5.2°C 36.9°F2.7°C 84% 4.7 mph S7.6 kmh S 5.9 mph9.5 kmh 29.48 in998.3 mb 0.00 in0.0 mm 0.00 in0.0 mm 0.00 in0.0 mm
03:50 PM 41.4°F5.2°C 36.9°F2.7°C 84% 5.3 mph SSW8.5 kmh SSW 5.9 mph9.5 kmh 29.50 in999.0 mb 0.00 in0.0 mm 0.00 in0.0 mm 0.00 in0.0 mm
04:00 PM 41.2°F5.1°C 36.7°F2.6°C 84% 5.0 mph S8.0 kmh S 6.6 mph10.6 kmh 29.49 in998.6 mb 0.00 in0.0 mm 0.00 in0.0 mm 0.00 in0.0 mm
04:10 PM 41.2°F5.1°C 36.7°F2.6°C 84% 5.9 mph SSW9.5 kmh SSW 6.6 mph10.6 kmh 29.49 in998.6 mb 0.00 in0.0 mm 0.00 in0.0 mm 0.00 in0.0 mm
04:20 PM 41.0°F5.0°C 36.8°F2.7°C 85% 4.7 mph SSW7.6 kmh SSW 6.6 mph10.6 kmh 29.49 in998.6 mb 0.00 in0.0 mm 0.00 in0.0 mm 0.00 in0.0 mm
04:30 PM 41.0°F5.0°C 36.8°F2.7°C 85% 5.6 mph S9.0 kmh S 8.4 mph13.5 kmh 29.49 in998.6 mb 0.00 in0.0 mm 0.00 in0.0 mm 0.00 in0.0 mm
04:40 PM 41.0°F5.0°C 36.8°F2.7°C 85% 5.4 mph S8.7 kmh S 6.6 mph10.6 kmh 29.49 in998.6 mb 0.00 in0.0 mm 0.00 in0.0 mm 0.00 in0.0 mm
04:50 PM 40.8°F4.9°C 36.7°F2.6°C 85% 6.1 mph S9.8 kmh S 6.6 mph10.6 kmh 29.49 in998.6 mb 0.00 in0.0 mm 0.00 in0.0 mm 0.00 in0.0 mm
05:00 PM 40.8°F4.9°C 36.7°F2.6°C 85% 5.3 mph SE8.5 kmh SE 5.9 mph9.5 kmh 29.49 in998.6 mb 0.00 in0.0 mm 0.00 in0.0 mm 0.00 in0.0 mm
05:10 PM 41.0°F5.0°C 37.1°F2.8°C 86% 4.8 mph NNE7.7 kmh NNE 4.9 mph7.9 kmh 29.49 in998.6 mb 0.00 in0.0 mm 0.00 in0.0 mm 0.00 in0.0 mm
05:20 PM 41.2°F5.1°C 37.3°F2.9°C 86% 7.6 mph S12.2 kmh S 8.4 mph13.5 kmh 29.49 in998.6 mb 0.00 in0.0 mm 0.00 in0.0 mm 0.00 in0.0 mm
05:30 PM 41.4°F5.2°C 37.5°F3.1°C 86% 6.9 mph S11.1 kmh S 6.6 mph10.6 kmh 29.49 in998.6 mb 0.00 in0.0 mm 0.00 in0.0 mm 0.00 in0.0 mm
05:40 PM 41.4°F5.2°C 37.5°F3.1°C 86% 6.4 mph S10.3 kmh S 7.6 mph12.2 kmh 29.49 in998.6 mb 0.00 in0.0 mm 0.00 in0.0 mm 0.00 in0.0 mm
05:50 PM 41.4°F5.2°C 37.5°F3.1°C 86% 4.9 mph S7.9 kmh S 7.6 mph12.2 kmh 29.49 in998.6 mb 0.00 in0.0 mm 0.00 in0.0 mm 0.00 in0.0 mm
06:00 PM 41.4°F5.2°C 37.5°F3.1°C 86% 2.6 mph S4.2 kmh S 4.2 mph6.8 kmh 29.49 in998.6 mb 0.00 in0.0 mm 0.00 in0.0 mm 0.00 in0.0 mm
06:10 PM 41.4°F5.2°C 37.5°F3.1°C 86% 2.0 mph S3.2 kmh S 3.4 mph5.5 kmh 29.49 in998.6 mb 0.00 in0.0 mm 0.00 in0.0 mm 0.00 in0.0 mm
06:20 PM 41.2°F5.1°C 37.3°F2.9°C 86% 1.7 mph S2.7 kmh S 3.4 mph5.5 kmh 29.49 in998.6 mb 0.00 in0.0 mm 0.00 in0.0 mm 0.00 in0.0 mm
06:30 PM 40.8°F4.9°C 37.0°F2.8°C 86% 1.0 mph S1.6 kmh S 2.5 mph4.0 kmh 29.49 in998.6 mb 0.00 in0.0 mm 0.00 in0.0 mm 0.00 in0.0 mm
06:40 PM 41.0°F5.0°C 37.1°F2.8°C 86% 2.3 mph S3.7 kmh S 3.4 mph5.5 kmh 29.49 in998.6 mb 0.00 in0.0 mm 0.00 in0.0 mm 0.00 in0.0 mm
06:50 PM 41.2°F5.1°C 37.3°F2.9°C 86% 2.8 mph S4.5 kmh S 3.4 mph5.5 kmh 29.49 in998.6 mb 0.00 in0.0 mm 0.00 in0.0 mm 0.00 in0.0 mm
07:00 PM 41.4°F5.2°C 37.8°F3.2°C 87% 4.0 mph S6.4 kmh S 4.2 mph6.8 kmh 29.49 in998.6 mb 0.00 in0.0 mm 0.00 in0.0 mm 0.00 in0.0 mm
07:10 PM 41.4°F5.2°C 37.8°F3.2°C 87% 3.5 mph SSE5.6 kmh SSE 4.2 mph6.8 kmh 29.49 in998.6 mb 0.00 in0.0 mm 0.00 in0.0 mm 0.00 in0.0 mm
07:20 PM 41.4°F5.2°C 37.8°F3.2°C 87% 4.2 mph S6.8 kmh S 4.9 mph7.9 kmh 29.50 in999.0 mb 0.00 in0.0 mm 0.00 in0.0 mm 0.00 in0.0 mm
07:30 PM 41.5°F5.3°C 38.0°F3.3°C 87% 4.9 mph S7.9 kmh S 4.9 mph7.9 kmh 29.50 in999.0 mb 0.00 in0.0 mm 0.00 in0.0 mm 0.00 in0.0 mm
07:40 PM 41.5°F5.3°C 38.3°F3.5°C 88% 5.5 mph S8.9 kmh S 4.9 mph7.9 kmh 29.49 in998.6 mb 0.00 in0.0 mm 0.00 in0.0 mm 0.00 in0.0 mm
07:50 PM 41.4°F5.2°C 38.1°F3.4°C 88% 4.4 mph S7.1 kmh S 4.2 mph6.8 kmh 29.49 in998.6 mb 0.00 in0.0 mm 0.00 in0.0 mm 0.00 in0.0 mm
08:00 PM 41.4°F5.2°C 38.1°F3.4°C 88% 3.0 mph S4.8 kmh S 2.5 mph4.0 kmh 29.49 in998.6 mb 0.00 in0.0 mm 0.00 in0.0 mm 0.00 in0.0 mm
08:10 PM 41.4°F5.2°C 38.1°F3.4°C 88% 2.8 mph S4.5 kmh S 3.4 mph5.5 kmh 29.49 in998.6 mb 0.00 in0.0 mm 0.00 in0.0 mm 0.00 in0.0 mm
08:20 PM 41.4°F5.2°C 38.1°F3.4°C 88% 1.8 mph S2.9 kmh S 3.4 mph5.5 kmh 29.49 in998.6 mb 0.00 in0.0 mm 0.00 in0.0 mm 0.00 in0.0 mm
08:30 PM 41.4°F5.2°C 38.1°F3.4°C 88% 0.2 mph SSE0.3 kmh SSE 1.7 mph2.7 kmh 29.48 in998.3 mb 0.00 in0.0 mm 0.00 in0.0 mm 0.00 in0.0 mm
08:40 PM 41.2°F5.1°C 37.9°F3.3°C 88% Calm Calm 0.7 mph1.1 kmh 29.48 in998.3 mb 0.00 in0.0 mm 0.00 in0.0 mm 0.00 in0.0 mm
08:50 PM 41.0°F5.0°C 37.7°F3.2°C 88% Calm Calm 0.7 mph1.1 kmh 29.48 in998.3 mb 0.00 in0.0 mm 0.00 in0.0 mm 0.00 in0.0 mm
09:00 PM 41.0°F5.0°C 38.0°F3.3°C 89% 0.1 mph SSE0.2 kmh SSE 1.7 mph2.7 kmh 29.48 in998.3 mb 0.00 in0.0 mm 0.00 in0.0 mm 0.00 in0.0 mm
09:10 PM 40.8°F4.9°C 37.8°F3.2°C 89% 0.9 mph SE1.4 kmh SE 1.7 mph2.7 kmh 29.48 in998.3 mb 0.00 in0.0 mm 0.00 in0.0 mm 0.00 in0.0 mm
09:20 PM 40.3°F4.6°C 37.0°F2.8°C 88% Calm Calm -- 29.48 in998.3 mb 0.00 in0.0 mm 0.00 in0.0 mm 0.00 in0.0 mm
09:30 PM 40.3°F4.6°C 37.0°F2.8°C 88% Calm Calm 0.7 mph1.1 kmh 29.47 in998.0 mb 0.00 in0.0 mm 0.00 in0.0 mm 0.00 in0.0 mm
09:40 PM 40.6°F4.8°C 37.7°F3.2°C 89% 0.7 mph SE1.1 kmh SE 2.5 mph4.0 kmh 29.47 in998.0 mb 0.00 in0.0 mm 0.00 in0.0 mm 0.00 in0.0 mm
09:50 PM 41.0°F5.0°C 38.0°F3.3°C 89% 0.8 mph SE1.3 kmh SE 2.5 mph4.0 kmh 29.47 in998.0 mb 0.00 in0.0 mm 0.00 in0.0 mm 0.00 in0.0 mm
10:00 PM 41.0°F5.0°C 38.0°F3.3°C 89% Calm Calm 1.7 mph2.7 kmh 29.46 in997.6 mb 0.00 in0.0 mm 0.00 in0.0 mm 0.00 in0.0 mm
10:10 PM 41.0°F5.0°C 38.0°F3.3°C 89% 0.3 mph S0.5 kmh S 1.7 mph2.7 kmh 29.46 in997.6 mb 0.00 in0.0 mm 0.00 in0.0 mm 0.00 in0.0 mm
10:20 PM 40.6°F4.8°C 37.7°F3.2°C 89% Calm Calm 0.7 mph1.1 kmh 29.47 in998.0 mb 0.00 in0.0 mm 0.00 in0.0 mm 0.00 in0.0 mm
10:30 PM 40.8°F4.9°C 37.8°F3.2°C 89% Calm Calm 0.7 mph1.1 kmh 29.46 in997.6 mb 0.00 in0.0 mm 0.00 in0.0 mm 0.00 in0.0 mm
10:40 PM 40.8°F4.9°C 37.8°F3.2°C 89% 0.3 mph S0.5 kmh S 1.7 mph2.7 kmh 29.47 in998.0 mb 0.00 in0.0 mm 0.00 in0.0 mm 0.00 in0.0 mm
10:50 PM 40.5°F4.7°C 37.5°F3.1°C 89% Calm Calm -- 29.46 in997.6 mb 0.00 in0.0 mm 0.00 in0.0 mm 0.00 in0.0 mm
11:00 PM 40.1°F4.5°C 37.1°F2.8°C 89% Calm Calm -- 29.46 in997.6 mb 0.00 in0.0 mm 0.00 in0.0 mm 0.00 in0.0 mm
11:10 PM 39.7°F4.3°C 36.8°F2.7°C 89% Calm Calm -- 29.45 in997.3 mb 0.00 in0.0 mm 0.00 in0.0 mm 0.00 in0.0 mm
11:20 PM 39.6°F4.2°C 36.6°F2.6°C 89% Calm Calm -- 29.46 in997.6 mb 0.00 in0.0 mm 0.00 in0.0 mm 0.00 in0.0 mm
11:30 PM 39.4°F4.1°C 36.4°F2.4°C 89% Calm Calm -- 29.46 in997.6 mb 0.00 in0.0 mm 0.00 in0.0 mm 0.00 in0.0 mm
11:40 PM 39.2°F4.0°C 36.2°F2.3°C 89% Calm Calm -- 29.46 in997.6 mb 0.00 in0.0 mm 0.00 in0.0 mm 0.00 in0.0 mm
11:50 PM 38.8°F3.8°C 35.9°F2.2°C 89% Calm Calm -- 29.46 in997.6 mb 0.00 in0.0 mm 0.00 in0.0 mm 0.00 in0.0 mm